createdAt,value
2022-12-11T00:02:51.104Z,-1.53
2022-12-11T00:05:53.795Z,-1.55
2022-12-11T00:08:56.504Z,-1.56
2022-12-11T00:11:59.207Z,-1.45
2022-12-11T00:15:01.912Z,-1.45
2022-12-11T00:18:07.331Z,-1.41
2022-12-11T00:21:14.065Z,-1.36
2022-12-11T00:24:16.790Z,-1.34
2022-12-11T00:27:19.573Z,-1.31
2022-12-11T00:30:22.289Z,-1.19
2022-12-11T00:33:27.876Z,-1.12
2022-12-11T00:36:30.543Z,-1.14
2022-12-11T00:39:33.280Z,-1.02
2022-12-11T00:42:35.988Z,-0.87
2022-12-11T00:45:39.095Z,-0.74
2022-12-11T00:48:43.363Z,-0.66
2022-12-11T00:51:46.057Z,-0.71
2022-12-11T00:54:48.918Z,-0.74
2022-12-11T00:57:52.441Z,-0.68
2022-12-11T01:00:55.153Z,-0.61
2022-12-11T01:03:59.351Z,-0.70
2022-12-11T01:07:02.155Z,-0.53
2022-12-11T01:10:23.872Z,-0.49
2022-12-11T01:13:26.539Z,-0.46
2022-12-11T01:16:29.290Z,-0.38
2022-12-11T01:19:33.773Z,-0.41
2022-12-11T01:22:36.451Z,-0.40
2022-12-11T01:25:39.134Z,-0.32
2022-12-11T01:28:42.817Z,-0.28
2022-12-11T01:31:45.511Z,-0.28
2022-12-11T01:34:49.534Z,-0.29
2022-12-11T01:37:52.202Z,-0.28
2022-12-11T01:40:54.884Z,-0.32
2022-12-11T01:44:02.222Z,-0.34
2022-12-11T01:47:04.966Z,-0.20
2022-12-11T01:50:09.841Z,-0.22
2022-12-11T01:53:17.830Z,-0.21
2022-12-11T01:56:21.085Z,-0.20
2022-12-11T01:59:27.976Z,-0.21
2022-12-11T02:02:32.051Z,-0.27
2022-12-11T02:05:36.141Z,-0.29
2022-12-11T02:08:38.900Z,-0.26
2022-12-11T02:11:52.925Z,-0.16
2022-12-11T02:15:03.845Z,-0.20
2022-12-11T02:18:19.884Z,-0.24
2022-12-11T02:21:27.805Z,-0.22
2022-12-11T02:24:48.158Z,-0.21
2022-12-11T02:27:56.675Z,-0.24
2022-12-11T02:31:05.538Z,-0.20
2022-12-11T02:34:13.584Z,-0.16
2022-12-11T02:37:22.894Z,-0.13
2022-12-11T02:40:29.765Z,-0.05
2022-12-11T02:43:34.163Z,-0.06
2022-12-11T02:46:39.020Z,-0.17
2022-12-11T02:49:44.968Z,-0.12
2022-12-11T02:52:51.502Z,-0.12
2022-12-11T02:56:00.386Z,-0.07
2022-12-11T02:59:10.009Z,0.04
2022-12-11T03:02:16.266Z,0.03
2022-12-11T03:05:19.126Z,0.07
2022-12-11T03:08:21.792Z,0.06
2022-12-11T03:11:24.656Z,0.10
2022-12-11T03:14:27.288Z,0.09
2022-12-11T03:17:36.586Z,0.11
2022-12-11T03:20:44.468Z,0.08
2022-12-11T03:23:53.817Z,0.10
2022-12-11T03:27:01.130Z,0.12
2022-12-11T03:30:07.645Z,0.06
2022-12-11T03:33:15.232Z,0.02
2022-12-11T03:36:23.196Z,-0.01
2022-12-11T03:39:31.106Z,-0.03
2022-12-11T03:42:35.119Z,-0.04
2022-12-11T03:45:40.394Z,-0.05
2022-12-11T03:48:47.659Z,-0.04
2022-12-11T03:51:53.098Z,-0.07
2022-12-11T03:54:59.575Z,-0.11
2022-12-11T03:58:02.450Z,-0.23
2022-12-11T04:01:05.440Z,-0.21
2022-12-11T04:04:09.518Z,-0.16
2022-12-11T04:07:12.377Z,-0.11
2022-12-11T04:10:15.127Z,-0.11
2022-12-11T04:13:17.768Z,-0.05
2022-12-11T04:16:19.449Z,-0.01
2022-12-11T04:19:41.887Z,-0.03
2022-12-11T04:23:02.313Z,0.07
2022-12-11T04:26:07.081Z,0.09
2022-12-11T04:29:09.733Z,0.03
2022-12-11T04:32:12.647Z,-0.02
2022-12-11T04:35:17.022Z,0.04
2022-12-11T04:38:19.731Z,0.10
2022-12-11T04:41:22.352Z,0.19
2022-12-11T04:44:24.980Z,0.25
2022-12-11T04:47:27.875Z,0.33
2022-12-11T04:50:32.131Z,0.35
2022-12-11T04:53:34.951Z,0.36
2022-12-11T04:56:37.627Z,0.26
2022-12-11T04:59:40.373Z,0.23
2022-12-11T05:02:43.403Z,0.16
2022-12-11T05:05:50.589Z,0.17
2022-12-11T05:08:53.496Z,0.23
2022-12-11T05:11:56.516Z,0.17
2022-12-11T05:14:59.199Z,0.15
2022-12-11T05:18:01.830Z,0.07
2022-12-11T05:21:08.454Z,0.03
2022-12-11T05:24:11.092Z,0.04
2022-12-11T05:27:14.232Z,-0.06
2022-12-11T05:30:17.079Z,-0.04
2022-12-11T05:33:19.744Z,-0.04
2022-12-11T05:36:26.005Z,-0.21
2022-12-11T05:39:28.635Z,-0.24
2022-12-11T05:42:31.375Z,-0.26
2022-12-11T05:45:34.155Z,-0.39
2022-12-11T05:48:37.691Z,-0.41
2022-12-11T05:51:43.267Z,-0.45
2022-12-11T05:54:45.959Z,-0.52
2022-12-11T05:57:48.592Z,-0.63
2022-12-11T06:00:51.225Z,-0.83
2022-12-11T06:03:55.237Z,-1.01
2022-12-11T06:06:59.215Z,-1.13
2022-12-11T06:10:01.892Z,-1.22
2022-12-11T06:13:04.925Z,-1.28
2022-12-11T06:16:09.182Z,-1.33
2022-12-11T06:19:14.600Z,-1.27
2022-12-11T06:22:18.627Z,-1.49
2022-12-11T06:25:21.311Z,-1.59
2022-12-11T06:28:23.965Z,-1.61
2022-12-11T06:31:26.648Z,-1.57
2022-12-11T06:34:29.401Z,-1.69
2022-12-11T06:37:33.416Z,-1.70
2022-12-11T06:40:36.105Z,-1.82
2022-12-11T06:43:41.126Z,-1.83
2022-12-11T06:46:43.830Z,-1.78
2022-12-11T06:49:46.464Z,-1.77
2022-12-11T06:52:50.779Z,-1.85
2022-12-11T06:55:58.241Z,-1.86
2022-12-11T06:59:07.287Z,-1.89
2022-12-11T07:02:15.098Z,-1.93
2022-12-11T07:05:20.130Z,-1.95
2022-12-11T07:08:26.852Z,-1.96
2022-12-11T07:11:31.749Z,-1.92
2022-12-11T07:14:35.614Z,-1.90
2022-12-11T07:17:40.612Z,-1.90
2022-12-11T07:20:45.002Z,-1.85
2022-12-11T07:23:50.650Z,-1.83
2022-12-11T07:26:54.027Z,-1.69
2022-12-11T07:29:57.422Z,-1.60
2022-12-11T07:33:01.107Z,-1.55
2022-12-11T07:36:04.742Z,-1.41
2022-12-11T07:39:10.119Z,-1.29
2022-12-11T07:42:14.506Z,-1.11
2022-12-11T07:45:19.257Z,-0.99
2022-12-11T07:48:23.774Z,-0.98
2022-12-11T07:51:30.199Z,-0.93
2022-12-11T07:54:35.856Z,-0.88
2022-12-11T07:57:40.462Z,-0.88
2022-12-11T08:00:48.573Z,-0.83
2022-12-11T08:03:53.537Z,-0.79
2022-12-11T08:06:58.115Z,-0.68
2022-12-11T08:10:04.473Z,-0.58
2022-12-11T08:13:09.099Z,-0.54
2022-12-11T08:16:15.784Z,-0.45
2022-12-11T08:19:20.821Z,-0.31
2022-12-11T08:22:26.415Z,-0.29
2022-12-11T08:25:33.134Z,-0.11
2022-12-11T08:28:38.363Z,-0.11
2022-12-11T08:31:43.738Z,-0.16
2022-12-11T08:34:49.390Z,-0.19
2022-12-11T08:37:54.616Z,-0.20
2022-12-11T08:41:00.917Z,-0.16
2022-12-11T08:44:06.153Z,-0.17
2022-12-11T08:47:11.714Z,-0.07
2022-12-11T08:50:16.514Z,-0.06
2022-12-11T08:53:21.476Z,-0.07
2022-12-11T08:56:28.708Z,-0.11
2022-12-11T08:59:33.446Z,0.00
2022-12-11T09:02:39.076Z,-0.03
2022-12-11T09:05:44.789Z,0.07
2022-12-11T09:08:52.931Z,0.16
2022-12-11T09:12:00.480Z,0.27
2022-12-11T09:15:05.140Z,0.45
2022-12-11T09:18:09.392Z,0.52
2022-12-11T09:21:16.046Z,0.66
2022-12-11T09:24:23.565Z,0.83
2022-12-11T09:27:29.563Z,0.88
2022-12-11T09:30:34.690Z,0.84
2022-12-11T09:33:39.353Z,0.91
2022-12-11T09:36:45.106Z,0.87
2022-12-11T09:39:49.046Z,0.76
2022-12-11T09:42:59.560Z,0.67
2022-12-11T09:46:07.334Z,0.63
2022-12-11T09:49:24.549Z,0.77
2022-12-11T09:52:36.474Z,0.88
2022-12-11T09:55:52.170Z,0.99
2022-12-11T09:59:06.114Z,0.89
2022-12-11T10:02:26.838Z,1.02
2022-12-11T10:05:40.422Z,1.10
2022-12-11T10:08:52.887Z,1.14
2022-12-11T10:12:07.991Z,1.09
2022-12-11T10:15:36.572Z,1.17
2022-12-11T10:18:42.078Z,1.26
2022-12-11T10:21:48.839Z,1.24
2022-12-11T10:25:10.706Z,1.24
2022-12-11T10:28:17.618Z,1.22
2022-12-11T10:31:34.195Z,1.14
2022-12-11T10:34:42.991Z,1.19
2022-12-11T10:37:48.548Z,1.20
2022-12-11T10:40:58.700Z,1.20
2022-12-11T10:44:03.979Z,1.15
2022-12-11T10:47:14.465Z,1.19
2022-12-11T10:50:27.176Z,1.27
2022-12-11T10:53:32.485Z,1.34
2022-12-11T10:56:39.582Z,1.45
2022-12-11T10:59:49.744Z,1.47
2022-12-11T11:02:56.784Z,1.60
2022-12-11T11:06:06.312Z,1.65
2022-12-11T11:09:38.525Z,1.76
2022-12-11T11:12:44.902Z,1.93
2022-12-11T11:15:49.941Z,2.00
2022-12-11T11:18:58.503Z,1.98
2022-12-11T11:22:07.460Z,1.99
2022-12-11T11:25:20.009Z,2.17
2022-12-11T11:28:27.626Z,2.29
2022-12-11T11:31:37.381Z,2.29
2022-12-11T11:34:44.147Z,2.22
2022-12-11T11:38:00.045Z,2.08
2022-12-11T11:41:15.269Z,1.97
2022-12-11T11:44:26.800Z,1.86
2022-12-11T11:47:38.324Z,1.76
2022-12-11T11:50:50.891Z,1.73
2022-12-11T11:53:59.756Z,1.76
2022-12-11T11:57:13.312Z,1.80
2022-12-11T12:00:23.207Z,1.88
2022-12-11T12:03:29.410Z,1.78
2022-12-11T12:07:01.082Z,1.86
2022-12-11T12:10:17.077Z,1.90
2022-12-11T12:13:49.065Z,1.99
2022-12-11T12:17:03.391Z,1.96
2022-12-11T12:20:19.864Z,2.00
2022-12-11T12:23:41.251Z,2.05
2022-12-11T12:26:50.807Z,2.05
2022-12-11T12:30:05.065Z,2.08
2022-12-11T12:33:30.314Z,1.95
2022-12-11T12:36:45.161Z,1.96
2022-12-11T12:39:58.643Z,2.00
2022-12-11T12:43:27.993Z,1.92
2022-12-11T12:46:48.315Z,2.02
2022-12-11T12:49:55.755Z,2.33
2022-12-11T12:53:00.486Z,2.38
2022-12-11T12:56:08.379Z,2.31
2022-12-11T12:59:23.891Z,2.35
2022-12-11T13:02:29.685Z,2.32
2022-12-11T13:05:36.698Z,2.28
2022-12-11T13:08:44.210Z,2.28
2022-12-11T13:11:54.175Z,2.36
2022-12-11T13:14:59.475Z,2.63
2022-12-11T13:18:07.456Z,3.57
2022-12-11T13:21:29.856Z,3.83
2022-12-11T13:24:35.693Z,3.66
2022-12-11T13:27:43.992Z,3.40
2022-12-11T13:31:00.343Z,3.16
2022-12-11T13:34:18.086Z,4.02
2022-12-11T13:37:29.782Z,5.58
2022-12-11T13:40:40.864Z,6.95
2022-12-11T13:43:49.530Z,8.05
2022-12-11T13:46:57.329Z,8.95
2022-12-11T13:50:16.362Z,9.38
2022-12-11T13:53:22.879Z,9.40
2022-12-11T13:56:27.754Z,9.19
2022-12-11T13:59:37.137Z,7.94
2022-12-11T14:02:43.775Z,6.93
2022-12-11T14:05:49.840Z,5.98
2022-12-11T14:08:59.898Z,5.61
2022-12-11T14:12:05.281Z,5.76
2022-12-11T14:15:18.462Z,5.31
2022-12-11T14:18:26.976Z,4.93
2022-12-11T14:21:32.060Z,4.44
2022-12-11T14:24:37.284Z,4.08
2022-12-11T14:27:50.468Z,3.59
2022-12-11T14:31:00.087Z,3.14
2022-12-11T14:34:11.202Z,2.81
2022-12-11T14:37:21.428Z,2.54
2022-12-11T14:40:30.270Z,2.25
2022-12-11T14:43:42.283Z,2.07
2022-12-11T14:46:52.276Z,1.97
2022-12-11T14:50:01.845Z,1.83
2022-12-11T14:53:12.470Z,1.81
2022-12-11T14:56:21.529Z,1.67
2022-12-11T14:59:31.868Z,1.70
2022-12-11T15:02:39.439Z,1.62
2022-12-11T15:05:52.077Z,1.65
2022-12-11T15:08:57.472Z,1.58
2022-12-11T15:12:12.212Z,1.50
2022-12-11T15:15:19.128Z,1.41
2022-12-11T15:18:29.335Z,1.30
2022-12-11T15:21:37.208Z,1.19
2022-12-11T15:24:45.361Z,1.26
2022-12-11T15:27:53.979Z,1.26
2022-12-11T15:31:01.094Z,1.29
2022-12-11T15:34:25.434Z,1.31
2022-12-11T15:37:33.038Z,1.38
2022-12-11T15:40:37.932Z,1.38
2022-12-11T15:43:42.668Z,1.37
2022-12-11T15:46:47.448Z,1.40
2022-12-11T15:49:56.734Z,1.40
2022-12-11T15:53:01.728Z,1.39
2022-12-11T15:56:07.010Z,1.45
2022-12-11T15:59:12.842Z,1.39
2022-12-11T16:02:20.059Z,1.43
2022-12-11T16:05:29.104Z,1.38
2022-12-11T16:08:35.440Z,1.42
2022-12-11T16:11:43.960Z,1.35
2022-12-11T16:14:50.293Z,1.31
2022-12-11T16:18:04.775Z,1.34
2022-12-11T16:21:14.520Z,1.37
2022-12-11T16:24:24.372Z,1.36
2022-12-11T16:27:30.711Z,1.30
2022-12-11T16:30:39.098Z,1.24
2022-12-11T16:33:44.722Z,1.14
2022-12-11T16:36:52.102Z,1.12
2022-12-11T16:39:57.593Z,1.02
2022-12-11T16:43:04.431Z,0.87
2022-12-11T16:46:10.517Z,0.87
2022-12-11T16:49:15.376Z,0.79
2022-12-11T16:52:22.459Z,0.73
2022-12-11T16:55:26.925Z,0.76
2022-12-11T16:58:31.540Z,0.66
2022-12-11T17:01:37.313Z,0.66
2022-12-11T17:04:42.404Z,0.58
2022-12-11T17:07:48.732Z,0.47
2022-12-11T17:10:54.423Z,0.50
2022-12-11T17:14:00.710Z,0.50
2022-12-11T17:17:05.651Z,0.48
2022-12-11T17:20:11.994Z,0.48
2022-12-11T17:23:18.278Z,0.46
2022-12-11T17:26:25.893Z,0.50
2022-12-11T17:29:31.165Z,0.55
2022-12-11T17:32:36.157Z,0.60
2022-12-11T17:35:42.403Z,0.67
2022-12-11T17:38:50.602Z,0.64
2022-12-11T17:41:55.410Z,0.66
2022-12-11T17:45:00.924Z,0.70
2022-12-11T17:48:09.482Z,0.75
2022-12-11T17:51:21.256Z,0.73
2022-12-11T17:54:27.455Z,0.75
2022-12-11T17:57:32.182Z,0.79
2022-12-11T18:00:37.320Z,0.87
2022-12-11T18:03:45.413Z,0.86
2022-12-11T18:06:50.546Z,0.90
2022-12-11T18:09:57.133Z,0.86
2022-12-11T18:13:01.866Z,0.84
2022-12-11T18:16:10.175Z,0.82
2022-12-11T18:19:16.148Z,0.67
2022-12-11T18:22:21.241Z,0.69
2022-12-11T18:25:28.470Z,0.67
2022-12-11T18:28:33.195Z,0.53
2022-12-11T18:31:42.421Z,0.30
2022-12-11T18:34:48.012Z,0.24
2022-12-11T18:37:52.773Z,0.11
2022-12-11T18:40:58.895Z,-0.01
2022-12-11T18:44:09.529Z,-0.12
2022-12-11T18:47:15.049Z,-0.15
2022-12-11T18:50:20.060Z,-0.25
2022-12-11T18:53:25.080Z,-0.39
2022-12-11T18:56:31.388Z,-0.45
2022-12-11T18:59:36.696Z,-0.65
2022-12-11T19:02:41.524Z,-0.76
2022-12-11T19:05:46.647Z,-0.81
2022-12-11T19:08:51.667Z,-0.88
2022-12-11T19:11:58.272Z,-0.91
2022-12-11T19:15:02.963Z,-0.93
2022-12-11T19:18:08.218Z,-0.92
2022-12-11T19:21:14.003Z,-0.93
2022-12-11T19:24:20.387Z,-1.00
2022-12-11T19:27:26.733Z,-1.05
2022-12-11T19:30:32.057Z,-1.22
2022-12-11T19:33:37.189Z,-1.32
2022-12-11T19:36:41.908Z,-1.31
2022-12-11T19:39:46.881Z,-1.30
2022-12-11T19:42:55.781Z,-1.33
2022-12-11T19:46:03.294Z,-1.32
2022-12-11T19:49:08.240Z,-1.32
2022-12-11T19:52:13.046Z,-1.43
2022-12-11T19:55:20.486Z,-1.47
2022-12-11T19:58:26.493Z,-1.36
2022-12-11T20:01:34.014Z,-1.42
2022-12-11T20:04:38.827Z,-1.28
2022-12-11T20:07:44.973Z,-1.36
2022-12-11T20:10:49.515Z,-1.32
2022-12-11T20:13:58.799Z,-1.26
2022-12-11T20:17:13.559Z,-1.21
2022-12-11T20:20:20.105Z,-1.20
2022-12-11T20:23:25.930Z,-1.04
2022-12-11T20:26:32.804Z,-0.89
2022-12-11T20:29:39.418Z,-0.83
2022-12-11T20:32:43.954Z,-0.79
2022-12-11T20:35:50.351Z,-0.71
2022-12-11T20:38:57.919Z,-0.68
2022-12-11T20:42:05.176Z,-0.62
2022-12-11T20:45:12.061Z,-0.54
2022-12-11T20:48:17.351Z,-0.50
2022-12-11T20:51:26.130Z,-0.50
2022-12-11T20:54:30.994Z,-0.46
2022-12-11T20:57:40.536Z,-0.41
2022-12-11T21:15:54.297Z,-0.23
2022-12-11T21:19:02.008Z,-0.14
2022-12-11T21:22:06.726Z,-0.10
2022-12-11T21:25:13.918Z,-0.07
2022-12-11T21:28:18.793Z,-0.04
2022-12-11T21:31:27.152Z,0.03
2022-12-11T21:34:31.965Z,0.01
2022-12-11T21:37:37.026Z,0.07
2022-12-11T21:40:42.006Z,0.07
2022-12-11T21:44:40.797Z,0.13
2022-12-11T21:47:14.833Z,0.13
2022-12-11T21:50:22.829Z,0.22
2022-12-11T21:53:27.960Z,0.27
2022-12-11T21:56:33.060Z,0.28
2022-12-11T21:59:38.239Z,0.28
2022-12-11T22:02:45.575Z,0.32
2022-12-11T22:05:50.740Z,0.41
2022-12-11T22:08:55.746Z,0.47
2022-12-11T22:12:00.288Z,0.45
2022-12-11T22:15:04.642Z,0.47
2022-12-11T22:18:10.720Z,0.48
2022-12-11T22:21:15.668Z,0.60
2022-12-11T22:24:21.729Z,0.59
2022-12-11T22:27:26.552Z,0.62
2022-12-11T22:30:30.841Z,0.59
2022-12-11T22:33:39.383Z,0.56
2022-12-11T22:36:43.813Z,0.52
2022-12-11T22:39:47.852Z,0.53
2022-12-11T22:42:55.063Z,0.57
2022-12-11T22:46:02.758Z,0.52
2022-12-11T22:49:09.196Z,0.43
2022-12-11T22:52:13.701Z,0.47
2022-12-11T22:55:19.159Z,0.35
2022-12-11T22:58:23.864Z,0.38
2022-12-11T23:01:31.596Z,0.41
2022-12-11T23:04:37.591Z,0.41
2022-12-11T23:07:42.133Z,0.43
2022-12-11T23:10:46.850Z,0.49
2022-12-11T23:13:52.038Z,0.42
2022-12-11T23:16:56.748Z,0.44
2022-12-11T23:20:04.355Z,0.42
2022-12-11T23:23:09.829Z,0.43
2022-12-11T23:26:16.067Z,0.45
2022-12-11T23:29:20.989Z,0.45
2022-12-11T23:32:26.028Z,0.52
2022-12-11T23:35:32.333Z,0.59
2022-12-11T23:38:37.596Z,0.67
2022-12-11T23:41:42.350Z,0.66
2022-12-11T23:44:47.561Z,0.70
2022-12-11T23:47:52.424Z,0.74
2022-12-11T23:51:03.961Z,0.76
2022-12-11T23:54:09.319Z,0.78
2022-12-11T23:57:14.071Z,0.78
